메인 페이지
METAR-TAF:

METAR-TAF

공항 :

Langlade County Airport

Antigo, 위스콘신, 미국

위도: 45-09-15N, 경도: 89-06-39W, 고도: 464m

현재 날씨관측

예보는 32분 전, 01:35시(UTC)에 발표되었습니다.
남동8kt
온도 13°C
습도 100%
기압 1007 hPa
시정: 11.3km
고도 5500ft 상공 구름 보통
고도 7000ft 상공 구름 보통

METAR: KAIG 230135Z AUTO 13008KT 7SM SCT055 SCT070 13/13 A2974 RMK AO2 P0003 T01340133

시각: 21:07 (02:07 UTC)


TAF: 누락

4,000개 이상의 공항 관측 자료 및 예보 (METAR 및 TAF 보고).

지도상에서 검색 가능한 기상관측소가 노란 점과 빨간 점으로 표시되어 있습니다.

기상관측소 명을 보려면 표시 위로 마우스를 이동하세요.

날씨 관측과 예보를 보려면 클릭하세요.

지도 변경 : 확대하려면 엑스 표시가 있는 녹색 버튼, 축소하려면 빼기 표시가 있는 녹색 버튼, 다음 페이지의 지도를 보려면 녹색 화살표를 클릭하세요.


METAR-TAF: